sensor_id;sensor_type;location;lat;lon;timestamp;P1;P2;P0
48893;PMS5003;34710;35.798;139.446;2022-10-04T00:31:20;21;19;
48893;PMS5003;34710;35.798;139.446;2022-10-04T01:05:07;24;21;
48893;PMS5003;34710;35.798;139.446;2022-10-04T01:10:11;25;21;
48893;PMS5003;34710;35.798;139.446;2022-10-04T01:42:31;21;19;
48893;PMS5003;34710;35.798;139.446;2022-10-04T10:38:51;20;20;
48893;PMS5003;34710;35.798;139.446;2022-10-04T10:41:54;17;14;
48893;PMS5003;34710;35.798;139.446;2022-10-04T10:44:46;15;15;
48893;PMS5003;34710;35.798;139.446;2022-10-04T10:47:32;21;15;
48893;PMS5003;34710;35.798;139.446;2022-10-04T10:50:24;49;35;
48893;PMS5003;34710;35.798;139.446;2022-10-04T10:53:18;19;18;
48893;PMS5003;34710;35.798;139.446;2022-10-04T10:56:09;28;14;
48893;PMS5003;34710;35.798;139.446;2022-10-04T10:56:51;29;15;
48893;PMS5003;34710;35.798;139.446;2022-10-04T11:00:03;17;16;
48893;PMS5003;34710;35.798;139.446;2022-10-04T11:03:38;18;16;
48893;PMS5003;34710;35.798;139.446;2022-10-04T11:07:01;19;16;
48893;PMS5003;34710;35.798;139.446;2022-10-04T11:09:50;22;18;
48893;PMS5003;34710;35.798;139.446;2022-10-04T11:12:59;21;19;
48893;PMS5003;34710;35.798;139.446;2022-10-04T11:16:12;22;19;
48893;PMS5003;34710;35.798;139.446;2022-10-04T11:19:09;33;18;
48893;PMS5003;34710;35.798;139.446;2022-10-04T11:22:42;18;18;
48893;PMS5003;34710;35.798;139.446;2022-10-04T11:25:36;17;16;
48893;PMS5003;34710;35.798;139.446;2022-10-04T11:28:23;18;17;
48893;PMS5003;34710;35.798;139.446;2022-10-04T11:31:22;17;17;
48893;PMS5003;34710;35.798;139.446;2022-10-04T11:34:29;27;19;
48893;PMS5003;34710;35.798;139.446;2022-10-04T11:37:39;19;17;
48893;PMS5003;34710;35.798;139.446;2022-10-04T11:40:24;24;18;
48893;PMS5003;34710;35.798;139.446;2022-10-04T11:43:16;20;19;
48893;PMS5003;34710;35.798;139.446;2022-10-04T11:46:19;24;22;
48893;PMS5003;34710;35.798;139.446;2022-10-04T11:49:02;27;24;
48893;PMS5003;34710;35.798;139.446;2022-10-04T11:51:59;27;21;
48893;PMS5003;34710;35.798;139.446;2022-10-04T11:55:36;26;21;
48893;PMS5003;34710;35.798;139.446;2022-10-04T11:58:22;31;22;
48893;PMS5003;34710;35.798;139.446;2022-10-04T12:01:14;21;21;
48893;PMS5003;34710;35.798;139.446;2022-10-04T12:04:11;30;23;
48893;PMS5003;34710;35.798;139.446;2022-10-04T12:06:57;26;23;
48893;PMS5003;34710;35.798;139.446;2022-10-04T12:09:39;26;23;
48893;PMS5003;34710;35.798;139.446;2022-10-04T12:12:27;26;25;
48893;PMS5003;34710;35.798;139.446;2022-10-04T12:15:16;29;21;
48893;PMS5003;34710;35.798;139.446;2022-10-04T12:18:20;22;21;
48893;PMS5003;34710;35.798;139.446;2022-10-04T12:21:09;21;21;
48893;PMS5003;34710;35.798;139.446;2022-10-04T12:24:07;25;23;
48893;PMS5003;34710;35.798;139.446;2022-10-04T12:26:56;23;23;
48893;PMS5003;34710;35.798;139.446;2022-10-04T12:30:34;28;24;
48893;PMS5003;34710;35.798;139.446;2022-10-04T12:33:17;23;23;
48893;PMS5003;34710;35.798;139.446;2022-10-04T12:35:55;25;23;
48893;PMS5003;34710;35.798;139.446;2022-10-04T12:38:53;25;21;
48893;PMS5003;34710;35.798;139.446;2022-10-04T12:39:33;24;21;
48893;PMS5003;34710;35.798;139.446;2022-10-04T12:42:17;20;20;
48893;PMS5003;34710;35.798;139.446;2022-10-04T12:45:02;27;21;
48893;PMS5003;34710;35.798;139.446;2022-10-04T12:47:54;22;19;
48893;PMS5003;34710;35.798;139.446;2022-10-04T12:50:40;19;18;
48893;PMS5003;34710;35.798;139.446;2022-10-04T12:53:21;21;19;
48893;PMS5003;34710;35.798;139.446;2022-10-04T12:56:01;21;19;
48893;PMS5003;34710;35.798;139.446;2022-10-04T12:58:41;24;21;
48893;PMS5003;34710;35.798;139.446;2022-10-04T13:01:23;26;22;
48893;PMS5003;34710;35.798;139.446;2022-10-04T13:04:03;21;18;
48893;PMS5003;34710;35.798;139.446;2022-10-04T13:06:48;29;24;
48893;PMS5003;34710;35.798;139.446;2022-10-04T13:09:29;33;22;
48893;PMS5003;34710;35.798;139.446;2022-10-04T13:12:13;26;22;
48893;PMS5003;34710;35.798;139.446;2022-10-04T13:15:23;24;24;
48893;PMS5003;34710;35.798;139.446;2022-10-04T13:17:59;26;19;
48893;PMS5003;34710;35.798;139.446;2022-10-04T13:20:39;31;24;
48893;PMS5003;34710;35.798;139.446;2022-10-04T13:23:20;22;21;
48893;PMS5003;34710;35.798;139.446;2022-10-04T13:26:06;20;20;
48893;PMS5003;34710;35.798;139.446;2022-10-04T13:28:50;28;22;
48893;PMS5003;34710;35.798;139.446;2022-10-04T13:31:25;21;21;
48893;PMS5003;34710;35.798;139.446;2022-10-04T13:34:05;21;18;
48893;PMS5003;34710;35.798;139.446;2022-10-04T13:37:02;28;24;
48893;PMS5003;34710;35.798;139.446;2022-10-04T13:40:03;29;19;
48893;PMS5003;34710;35.798;139.446;2022-10-04T13:42:55;29;24;
48893;PMS5003;34710;35.798;139.446;2022-10-04T13:45:38;27;23;
48893;PMS5003;34710;35.798;139.446;2022-10-04T13:48:21;31;23;
48893;PMS5003;34710;35.798;139.446;2022-10-04T13:51:03;21;21;
48893;PMS5003;34710;35.798;139.446;2022-10-04T13:53:54;38;23;
48893;PMS5003;34710;35.798;139.446;2022-10-04T13:56:46;25;23;
48893;PMS5003;34710;35.798;139.446;2022-10-04T13:59:28;24;24;
48893;PMS5003;34710;35.798;139.446;2022-10-04T14:02:47;27;23;
48893;PMS5003;34710;35.798;139.446;2022-10-04T14:05:46;30;24;
48893;PMS5003;34710;35.798;139.446;2022-10-04T14:08:35;30;24;
48893;PMS5003;34710;35.798;139.446;2022-10-04T14:11:39;26;23;
48893;PMS5003;34710;35.798;139.446;2022-10-04T14:15:22;31;26;
48893;PMS5003;34710;35.798;139.446;2022-10-04T14:18:32;29;23;
48893;PMS5003;34710;35.798;139.446;2022-10-04T14:24:40;30;21;
48893;PMS5003;34710;35.798;139.446;2022-10-04T14:28:27;26;24;
48893;PMS5003;34710;35.798;139.446;2022-10-04T14:31:45;24;22;
48893;PMS5003;34710;35.798;139.446;2022-10-04T14:34:38;21;21;
48893;PMS5003;34710;35.798;139.446;2022-10-04T14:37:27;23;23;
48893;PMS5003;34710;35.798;139.446;2022-10-04T14:40:30;35;24;
48893;PMS5003;34710;35.798;139.446;2022-10-04T14:43:44;30;26;
48893;PMS5003;34710;35.798;139.446;2022-10-04T14:46:33;29;24;
48893;PMS5003;34710;35.798;139.446;2022-10-04T14:49:16;35;24;
48893;PMS5003;34710;35.798;139.446;2022-10-04T14:52:00;32;25;
48893;PMS5003;34710;35.798;139.446;2022-10-04T14:54:41;26;23;
48893;PMS5003;34710;35.798;139.446;2022-10-04T14:57:19;24;23;
48893;PMS5003;34710;35.798;139.446;2022-10-04T15:00:09;24;22;
48893;PMS5003;34710;35.798;139.446;2022-10-04T15:02:49;33;22;
48893;PMS5003;34710;35.798;139.446;2022-10-04T15:05:37;25;23;
48893;PMS5003;34710;35.798;139.446;2022-10-04T15:08:17;27;20;
48893;PMS5003;34710;35.798;139.446;2022-10-04T15:11:07;27;23;
48893;PMS5003;34710;35.798;139.446;2022-10-04T15:13:46;21;21;
48893;PMS5003;34710;35.798;139.446;2022-10-04T15:16:21;28;21;
48893;PMS5003;34710;35.798;139.446;2022-10-04T15:19:02;24;24;
48893;PMS5003;34710;35.798;139.446;2022-10-04T15:21:45;33;23;
48893;PMS5003;34710;35.798;139.446;2022-10-04T15:24:21;25;24;
48893;PMS5003;34710;35.798;139.446;2022-10-04T15:26:59;27;26;
48893;PMS5003;34710;35.798;139.446;2022-10-04T15:27:44;27;26;
48893;PMS5003;34710;35.798;139.446;2022-10-04T15:30:22;33;24;
48893;PMS5003;34710;35.798;139.446;2022-10-04T15:33:06;27;25;
48893;PMS5003;34710;35.798;139.446;2022-10-04T15:36:07;26;25;
48893;PMS5003;34710;35.798;139.446;2022-10-04T15:39:01;27;24;
48893;PMS5003;34710;35.798;139.446;2022-10-04T15:41:39;37;24;
48893;PMS5003;34710;35.798;139.446;2022-10-04T15:44:39;33;25;
48893;PMS5003;34710;35.798;139.446;2022-10-04T15:47:23;26;25;
48893;PMS5003;34710;35.798;139.446;2022-10-04T15:49:58;29;27;
48893;PMS5003;34710;35.798;139.446;2022-10-04T15:52:40;31;27;
48893;PMS5003;34710;35.798;139.446;2022-10-04T15:55:20;30;26;
48893;PMS5003;34710;35.798;139.446;2022-10-04T15:58:02;40;24;
48893;PMS5003;34710;35.798;139.446;2022-10-04T16:00:55;35;29;
48893;PMS5003;34710;35.798;139.446;2022-10-04T16:03:38;38;28;
48893;PMS5003;34710;35.798;139.446;2022-10-04T16:06:17;36;28;
48893;PMS5003;34710;35.798;139.446;2022-10-04T16:08:59;28;26;
48893;PMS5003;34710;35.798;139.446;2022-10-04T16:11:51;30;26;
48893;PMS5003;34710;35.798;139.446;2022-10-04T16:14:34;34;31;
48893;PMS5003;34710;35.798;139.446;2022-10-04T16:17:36;35;31;
48893;PMS5003;34710;35.798;139.446;2022-10-04T16:20:47;47;35;
48893;PMS5003;34710;35.798;139.446;2022-10-04T16:23:29;41;33;
48893;PMS5003;34710;35.798;139.446;2022-10-04T16:26:00;43;34;
48893;PMS5003;34710;35.798;139.446;2022-10-04T16:29:08;46;33;
48893;PMS5003;34710;35.798;139.446;2022-10-04T16:31:53;41;29;
48893;PMS5003;34710;35.798;139.446;2022-10-04T16:34:27;46;36;
48893;PMS5003;34710;35.798;139.446;2022-10-04T16:37:13;36;36;
48893;PMS5003;34710;35.798;139.446;2022-10-04T16:39:53;34;33;
48893;PMS5003;34710;35.798;139.446;2022-10-04T16:42:26;45;34;
48893;PMS5003;34710;35.798;139.446;2022-10-04T16:45:27;37;35;
48893;PMS5003;34710;35.798;139.446;2022-10-04T16:48:05;43;38;
48893;PMS5003;34710;35.798;139.446;2022-10-04T16:50:51;54;39;
48893;PMS5003;34710;35.798;139.446;2022-10-04T16:53:36;55;42;
48893;PMS5003;34710;35.798;139.446;2022-10-04T16:56:14;46;35;
48893;PMS5003;34710;35.798;139.446;2022-10-04T16:58:51;35;34;
48893;PMS5003;34710;35.798;139.446;2022-10-04T17:01:37;51;35;
48893;PMS5003;34710;35.798;139.446;2022-10-04T17:04:44;45;36;
48893;PMS5003;34710;35.798;139.446;2022-10-04T17:07:27;39;35;
48893;PMS5003;34710;35.798;139.446;2022-10-04T17:10:31;40;39;
48893;PMS5003;34710;35.798;139.446;2022-10-04T17:13:14;52;34;
48893;PMS5003;34710;35.798;139.446;2022-10-04T17:15:55;51;38;
48893;PMS5003;34710;35.798;139.446;2022-10-04T17:18:36;40;34;
48893;PMS5003;34710;35.798;139.446;2022-10-04T17:21:22;38;31;
48893;PMS5003;34710;35.798;139.446;2022-10-04T17:24:04;32;32;
48893;PMS5003;34710;35.798;139.446;2022-10-04T17:26:47;41;36;
48893;PMS5003;34710;35.798;139.446;2022-10-04T17:29:30;44;33;
48893;PMS5003;34710;35.798;139.446;2022-10-04T17:32:11;47;37;
48893;PMS5003;34710;35.798;139.446;2022-10-04T17:34:51;44;33;
48893;PMS5003;34710;35.798;139.446;2022-10-04T17:37:33;46;36;
48893;PMS5003;34710;35.798;139.446;2022-10-04T17:40:18;38;32;
48893;PMS5003;34710;35.798;139.446;2022-10-04T17:43:01;38;32;
48893;PMS5003;34710;35.798;139.446;2022-10-04T17:45:51;38;30;
48893;PMS5003;34710;35.798;139.446;2022-10-04T17:48:32;38;34;
48893;PMS5003;34710;35.798;139.446;2022-10-04T17:51:11;44;32;
48893;PMS5003;34710;35.798;139.446;2022-10-04T17:54:02;48;36;
48893;PMS5003;34710;35.798;139.446;2022-10-04T17:56:39;35;34;
48893;PMS5003;34710;35.798;139.446;2022-10-04T17:59:12;33;32;
48893;PMS5003;34710;35.798;139.446;2022-10-04T18:01:46;43;33;
48893;PMS5003;34710;35.798;139.446;2022-10-04T18:04:26;41;35;
48893;PMS5003;34710;35.798;139.446;2022-10-04T18:07:03;44;33;
48893;PMS5003;34710;35.798;139.446;2022-10-04T18:09:44;48;36;
48893;PMS5003;34710;35.798;139.446;2022-10-04T18:12:23;39;33;
48893;PMS5003;34710;35.798;139.446;2022-10-04T18:14:57;42;33;
48893;PMS5003;34710;35.798;139.446;2022-10-04T18:17:33;39;35;
48893;PMS5003;34710;35.798;139.446;2022-10-04T18:20:15;40;35;
48893;PMS5003;34710;35.798;139.446;2022-10-04T18:22:55;37;34;
48893;PMS5003;34710;35.798;139.446;2022-10-04T18:25:27;36;34;
48893;PMS5003;34710;35.798;139.446;2022-10-04T18:28:00;41;35;
48893;PMS5003;34710;35.798;139.446;2022-10-04T18:30:50;39;35;
48893;PMS5003;34710;35.798;139.446;2022-10-04T18:33:23;43;34;
48893;PMS5003;34710;35.798;139.446;2022-10-04T18:35:59;44;36;
48893;PMS5003;34710;35.798;139.446;2022-10-04T18:38:33;41;35;
48893;PMS5003;34710;35.798;139.446;2022-10-04T18:41:15;38;37;
48893;PMS5003;34710;35.798;139.446;2022-10-04T18:43:50;43;31;
48893;PMS5003;34710;35.798;139.446;2022-10-04T18:46:37;48;35;
48893;PMS5003;34710;35.798;139.446;2022-10-04T18:49:12;35;34;
48893;PMS5003;34710;35.798;139.446;2022-10-04T18:51:47;37;37;
48893;PMS5003;34710;35.798;139.446;2022-10-04T18:54:28;37;36;
48893;PMS5003;34710;35.798;139.446;2022-10-04T18:57:08;38;32;
48893;PMS5003;34710;35.798;139.446;2022-10-04T18:59:49;35;29;
48893;PMS5003;34710;35.798;139.446;2022-10-04T19:02:28;39;34;
48893;PMS5003;34710;35.798;139.446;2022-10-04T19:05:05;36;33;
48893;PMS5003;34710;35.798;139.446;2022-10-04T19:07:42;38;32;
48893;PMS5003;34710;35.798;139.446;2022-10-04T19:10:22;44;32;
48893;PMS5003;34710;35.798;139.446;2022-10-04T19:12:57;48;37;
48893;PMS5003;34710;35.798;139.446;2022-10-04T19:15:39;43;41;
48893;PMS5003;34710;35.798;139.446;2022-10-04T19:18:32;41;36;
48893;PMS5003;34710;35.798;139.446;2022-10-04T19:21:13;40;34;
48893;PMS5003;34710;35.798;139.446;2022-10-04T19:24:01;45;34;
48893;PMS5003;34710;35.798;139.446;2022-10-04T19:26:42;36;33;
48893;PMS5003;34710;35.798;139.446;2022-10-04T19:29:20;44;38;
48893;PMS5003;34710;35.798;139.446;2022-10-04T19:32:00;45;37;
48893;PMS5003;34710;35.798;139.446;2022-10-04T19:34:35;50;38;
48893;PMS5003;34710;35.798;139.446;2022-10-04T19:37:14;50;37;
48893;PMS5003;34710;35.798;139.446;2022-10-04T19:39:54;48;34;
48893;PMS5003;34710;35.798;139.446;2022-10-04T19:42:33;36;36;
48893;PMS5003;34710;35.798;139.446;2022-10-04T19:45:13;33;32;
48893;PMS5003;34710;35.798;139.446;2022-10-04T19:47:52;39;36;
48893;PMS5003;34710;35.798;139.446;2022-10-04T19:50:25;39;36;
48893;PMS5003;34710;35.798;139.446;2022-10-04T19:53:00;36;35;
48893;PMS5003;34710;35.798;139.446;2022-10-04T19:55:39;31;30;
48893;PMS5003;34710;35.798;139.446;2022-10-04T19:58:32;30;30;
48893;PMS5003;34710;35.798;139.446;2022-10-04T20:01:09;33;28;
48893;PMS5003;34710;35.798;139.446;2022-10-04T20:03:39;33;27;
48893;PMS5003;34710;35.798;139.446;2022-10-04T20:06:09;33;31;
48893;PMS5003;34710;35.798;139.446;2022-10-04T20:08:49;30;27;
48893;PMS5003;34710;35.798;139.446;2022-10-04T20:11:20;36;31;
48893;PMS5003;34710;35.798;139.446;2022-10-04T20:14:47;33;27;
48893;PMS5003;34710;35.798;139.446;2022-10-04T20:17:32;25;25;
48893;PMS5003;34710;35.798;139.446;2022-10-04T20:20:02;31;25;
48893;PMS5003;34710;35.798;139.446;2022-10-04T20:22:58;26;26;
48893;PMS5003;34710;35.798;139.446;2022-10-04T20:26:01;27;24;
48893;PMS5003;34710;35.798;139.446;2022-10-04T20:28:40;31;25;
48893;PMS5003;34710;35.798;139.446;2022-10-04T20:31:11;25;24;
48893;PMS5003;34710;35.798;139.446;2022-10-04T20:34:22;28;24;
48893;PMS5003;34710;35.798;139.446;2022-10-04T20:37:00;27;23;
48893;PMS5003;34710;35.798;139.446;2022-10-04T20:40:00;25;25;
48893;PMS5003;34710;35.798;139.446;2022-10-04T20:42:31;28;23;
48893;PMS5003;34710;35.798;139.446;2022-10-04T20:45:41;26;23;
48893;PMS5003;34710;35.798;139.446;2022-10-04T20:48:15;24;21;
48893;PMS5003;34710;35.798;139.446;2022-10-04T20:50:47;32;23;
48893;PMS5003;34710;35.798;139.446;2022-10-04T20:53:18;24;22;
48893;PMS5003;34710;35.798;139.446;2022-10-04T20:55:49;24;22;
48893;PMS5003;34710;35.798;139.446;2022-10-04T20:58:34;22;21;
48893;PMS5003;34710;35.798;139.446;2022-10-04T21:01:05;31;24;
48893;PMS5003;34710;35.798;139.446;2022-10-04T21:03:47;23;20;
48893;PMS5003;34710;35.798;139.446;2022-10-04T21:06:17;23;22;
48893;PMS5003;34710;35.798;139.446;2022-10-04T21:08:46;25;21;
48893;PMS5003;34710;35.798;139.446;2022-10-04T21:11:17;23;22;
48893;PMS5003;34710;35.798;139.446;2022-10-04T21:13:48;24;23;
48893;PMS5003;34710;35.798;139.446;2022-10-04T21:16:37;21;20;
48893;PMS5003;34710;35.798;139.446;2022-10-04T21:19:42;23;22;
48893;PMS5003;34710;35.798;139.446;2022-10-04T21:22:44;21;19;
48893;PMS5003;34710;35.798;139.446;2022-10-04T21:25:30;21;19;
48893;PMS5003;34710;35.798;139.446;2022-10-04T21:28:32;30;21;
48893;PMS5003;34710;35.798;139.446;2022-10-04T21:31:02;27;22;
48893;PMS5003;34710;35.798;139.446;2022-10-04T21:33:32;20;18;
48893;PMS5003;34710;35.798;139.446;2022-10-04T21:36:02;33;23;
48893;PMS5003;34710;35.798;139.446;2022-10-04T21:38:33;23;22;
48893;PMS5003;34710;35.798;139.446;2022-10-04T21:41:03;23;22;
48893;PMS5003;34710;35.798;139.446;2022-10-04T21:43:33;27;25;
48893;PMS5003;34710;35.798;139.446;2022-10-04T21:46:02;20;19;
48893;PMS5003;34710;35.798;139.446;2022-10-04T21:48:32;27;24;
48893;PMS5003;34710;35.798;139.446;2022-10-04T21:51:02;26;25;
48893;PMS5003;34710;35.798;139.446;2022-10-04T21:53:31;26;23;
48893;PMS5003;34710;35.798;139.446;2022-10-04T21:56:00;25;24;
48893;PMS5003;34710;35.798;139.446;2022-10-04T21:58:29;25;24;
48893;PMS5003;34710;35.798;139.446;2022-10-04T22:00:59;21;20;
48893;PMS5003;34710;35.798;139.446;2022-10-04T22:03:28;21;19;
48893;PMS5003;34710;35.798;139.446;2022-10-04T22:05:56;17;17;
48893;PMS5003;34710;35.798;139.446;2022-10-04T22:08:26;18;16;
48893;PMS5003;34710;35.798;139.446;2022-10-04T22:10:55;16;15;
48893;PMS5003;34710;35.798;139.446;2022-10-04T22:13:25;16;15;
48893;PMS5003;34710;35.798;139.446;2022-10-04T22:15:54;16;11;
48893;PMS5003;34710;35.798;139.446;2022-10-04T22:18:23;12;12;
48893;PMS5003;34710;35.798;139.446;2022-10-04T22:20:52;10;10;
48893;PMS5003;34710;35.798;139.446;2022-10-04T22:23:22;21;13;
48893;PMS5003;34710;35.798;139.446;2022-10-04T22:25:53;10;9;
48893;PMS5003;34710;35.798;139.446;2022-10-04T22:28:23;9;9;
48893;PMS5003;34710;35.798;139.446;2022-10-04T22:30:54;9;8;
48893;PMS5003;34710;35.798;139.446;2022-10-04T22:33:26;6;5;
48893;PMS5003;34710;35.798;139.446;2022-10-04T22:36:03;4;4;
48893;PMS5003;34710;35.798;139.446;2022-10-04T22:38:42;2;2;
48893;PMS5003;34710;35.798;139.446;2022-10-04T22:41:16;5;4;
48893;PMS5003;34710;35.798;139.446;2022-10-04T22:43:46;7;4;
48893;PMS5003;34710;35.798;139.446;2022-10-04T22:46:17;3;3;
48893;PMS5003;34710;35.798;139.446;2022-10-04T22:48:47;3;3;
48893;PMS5003;34710;35.798;139.446;2022-10-04T22:51:17;2;2;
48893;PMS5003;34710;35.798;139.446;2022-10-04T22:53:48;1;0;
48893;PMS5003;34710;35.798;139.446;2022-10-04T22:56:17;4;1;
48893;PMS5003;34710;35.798;139.446;2022-10-04T22:58:46;2;2;
48893;PMS5003;34710;35.798;139.446;2022-10-04T23:01:16;1;1;
48893;PMS5003;34710;35.798;139.446;2022-10-04T23:03:46;1;1;
48893;PMS5003;34710;35.798;139.446;2022-10-04T23:06:16;2;2;
48893;PMS5003;34710;35.798;139.446;2022-10-04T23:08:45;4;1;
48893;PMS5003;34710;35.798;139.446;2022-10-04T23:11:15;2;1;
48893;PMS5003;34710;35.798;139.446;2022-10-04T23:13:44;1;1;
48893;PMS5003;34710;35.798;139.446;2022-10-04T23:16:15;1;1;
48893;PMS5003;34710;35.798;139.446;2022-10-04T23:18:49;1;1;
48893;PMS5003;34710;35.798;139.446;2022-10-04T23:21:24;0;0;
48893;PMS5003;34710;35.798;139.446;2022-10-04T23:23:58;2;2;
48893;PMS5003;34710;35.798;139.446;2022-10-04T23:26:35;2;1;
48893;PMS5003;34710;35.798;139.446;2022-10-04T23:29:05;6;1;
48893;PMS5003;34710;35.798;139.446;2022-10-04T23:31:41;1;1;
48893;PMS5003;34710;35.798;139.446;2022-10-04T23:34:12;1;1;
48893;PMS5003;34710;35.798;139.446;2022-10-04T23:36:45;1;1;
48893;PMS5003;34710;35.798;139.446;2022-10-04T23:39:18;2;1;
48893;PMS5003;34710;35.798;139.446;2022-10-04T23:41:53;1;1;
48893;PMS5003;34710;35.798;139.446;2022-10-04T23:44:24;3;2;
48893;PMS5003;34710;35.798;139.446;2022-10-04T23:46:59;5;3;
48893;PMS5003;34710;35.798;139.446;2022-10-04T23:49:30;2;2;
48893;PMS5003;34710;35.798;139.446;2022-10-04T23:52:00;3;2;
48893;PMS5003;34710;35.798;139.446;2022-10-04T23:54:30;11;2;
48893;PMS5003;34710;35.798;139.446;2022-10-04T23:57:00;2;2;
48893;PMS5003;34710;35.798;139.446;2022-10-04T23:59:29;1;1;
